Terminal Aerodrome Forecast
Issued by NWS

Home | Current Version | Previous Version | Text Only | Print | Product List | Glossary On
Versions: 1 2 3 4 5 6 7 8 9 10 11 12 13 14
000
FTUS46 KSEW 250500
TAFBLI
TAF
KBLI 250539Z 2506/2606 16006KT P6SM FEW045
     FM250800 17005KT P6SM BKN045
     FM251300 16006KT P6SM OVC025
     FM251800 17007KT P6SM BKN050
     FM252100 17008KT P6SM SCT250
     FM260300 18005KT P6SM FEW070=

USA.gov is the U.S. government's official web portal to all federal, state and local government web resources and services.